EFSI

Seinäjoki Airport

Seinäjoki / Ilmajoki, Finland
METAR EFSI 152150Z AUTO 00000KT CAVOK 07/07 Q1013
Observed Flight Rules
Aug-15 @ 21:50 UTC (36 minutes ago) Visual Flight Rules
Visibility Clouds
10,000+ meters
  • Clear skies
Temperatures Readings
Current 7°C / 45°F
Dewpoint 7°C / 45°F
Humidity 100%
Altimeter 29.91" Hg
Pressure 1013 hPa
Elevation 91
METAR EFSI 152150Z AUTO 00000KT CAVOK 07/07 Q1013
Observed Flight Rules
Aug-15 @ 21:50 UTC
(36 minutes ago)
VFR
Clouds
  • Clear skies
Temperature Dewpoint
7°C / 45°F 7°C / 45°F
Humidity Altimeter Pressure
100% 29.91" Hg 1013 hPa